X

Important NEWS



New Hub Active

Miami is our new hub! Old members can request transfer via hr@dlxairways.net

Thank you very much and have nice flight.


Deluxe Airways.

X

Tours



Hello again, we created one nice test tour for all pilots to attend. also this is ment to be testing of our tour system

Available Tours

If you find some issues please inform us.

Thank you very much and have nice flight.


Deluxe Airways.

 METAR AND TAF INFORMATION
ArrayMETAR FOR LCLK
51720055 5 LCLK 160430Z 22005KT 8000 NSC 26/22 Q1007 NOSIG LCLK 2019-06-16T04:30:00Z 34.87 33.62 26.0 22.0 220 5 4.97 29.734253 TRUE MVFR METAR 2.0 LCLK 160400Z VRB02KT 6000 NSC 25/22 Q1006 NOSIG LCLK 2019-06-16T04:00:00Z 34.87 33.62 25.0 22.0 0 2 3.73 29.704725 TRUE MVFR METAR 2.0 LCLK 160330Z 29002KT 6000 NSC 22/21 Q1006 NOSIG LCLK 2019-06-16T03:30:00Z 34.87 33.62 22.0 21.0 290 2 3.73 29.704725 TRUE MVFR METAR 2.0 LCLK 160300Z 30003KT 6000 NSC 22/21 Q1006 NOSIG LCLK 2019-06-16T03:00:00Z 34.87 33.62 22.0 21.0 300 3 3.73 29.704725 TRUE MVFR METAR 2.0

 AIRPORT MAP

 RUNWAY INFORMATION
Runway 04 Runway length 9776 ft Runway width 148 ft
Runway elevation 11 ft Runway displaced threshold 0 ft Runway heading 45
Runway 22 Runway length 9776 ft Runway width 148 ft
Runway elevation 6 ft Runway displaced threshold 575 ft Runway heading 225

 AIRPORT FREQUENCIES
Type APP Name APP Frequency 121.2 MHZ
Type ATIS Name ATIS Frequency 126.55 MHZ
Type TWR Name TWR Frequency 119.4 MHZ

 AIRPORT NEAR NAVIGATION AIDS
Type VOR-DME Name Larnaca Frequency 112800 KHZ
Type NDB Name Larnaca Frequency 432 KHZ



Powered by Virtual Airlines Manager [v2.6.2]

Template code change by DeluxeAir